sensor_id;sensor_type;location;lat;lon;timestamp;P1;P2;P0
76049;PMS7003;64967;50.234;19.224;2023-05-07T00:02:03;21.00;20.75;16.75
76049;PMS7003;64967;50.234;19.224;2023-05-07T00:04:30;22.25;21.25;16.50
76049;PMS7003;64967;50.234;19.224;2023-05-07T00:07:16;19.50;16.25;11.25
76049;PMS7003;64967;50.234;19.224;2023-05-07T00:10:10;20.50;19.25;13.00
76049;PMS7003;64967;50.234;19.224;2023-05-07T00:12:56;16.75;15.75;11.00
76049;PMS7003;64967;50.234;19.224;2023-05-07T00:15:43;23.50;20.50;15.25
76049;PMS7003;64967;50.234;19.224;2023-05-07T00:18:25;29.75;24.75;19.00
76049;PMS7003;64967;50.234;19.224;2023-05-07T00:20:52;23.50;19.00;15.00
76049;PMS7003;64967;50.234;19.224;2023-05-07T00:23:19;26.75;21.50;15.25
76049;PMS7003;64967;50.234;19.224;2023-05-07T00:25:46;28.25;26.25;18.00
76049;PMS7003;64967;50.234;19.224;2023-05-07T00:28:13;28.00;25.00;20.00
76049;PMS7003;64967;50.234;19.224;2023-05-07T00:30:39;18.75;18.75;17.75
76049;PMS7003;64967;50.234;19.224;2023-05-07T00:33:06;24.00;21.50;16.00
76049;PMS7003;64967;50.234;19.224;2023-05-07T00:35:33;26.75;25.00;16.25
76049;PMS7003;64967;50.234;19.224;2023-05-07T00:38:00;23.25;19.75;16.00
76049;PMS7003;64967;50.234;19.224;2023-05-07T00:40:28;28.25;22.25;16.50
76049;PMS7003;64967;50.234;19.224;2023-05-07T00:42:56;20.00;18.25;12.00
76049;PMS7003;64967;50.234;19.224;2023-05-07T00:45:27;25.00;19.25;13.50
76049;PMS7003;64967;50.234;19.224;2023-05-07T00:47:55;20.25;16.50;12.00
76049;PMS7003;64967;50.234;19.224;2023-05-07T00:50:24;27.00;20.75;13.75
76049;PMS7003;64967;50.234;19.224;2023-05-07T00:52:53;23.25;22.00;16.00
76049;PMS7003;64967;50.234;19.224;2023-05-07T00:55:21;23.75;23.25;17.00
76049;PMS7003;64967;50.234;19.224;2023-05-07T00:57:49;23.00;19.00;14.50
76049;PMS7003;64967;50.234;19.224;2023-05-07T01:00:17;18.25;16.75;12.50
76049;PMS7003;64967;50.234;19.224;2023-05-07T01:02:45;20.50;19.25;12.75
76049;PMS7003;64967;50.234;19.224;2023-05-07T01:05:16;25.75;21.00;16.00
76049;PMS7003;64967;50.234;19.224;2023-05-07T01:08:10;23.75;18.75;15.25
76049;PMS7003;64967;50.234;19.224;2023-05-07T01:11:04;21.00;19.50;14.75
76049;PMS7003;64967;50.234;19.224;2023-05-07T01:13:50;19.00;17.00;13.00
76049;PMS7003;64967;50.234;19.224;2023-05-07T01:16:36;18.75;15.75;11.00
76049;PMS7003;64967;50.234;19.224;2023-05-07T01:19:18;29.25;22.50;14.00
76049;PMS7003;64967;50.234;19.224;2023-05-07T01:21:46;19.25;18.75;13.50
76049;PMS7003;64967;50.234;19.224;2023-05-07T01:24:15;22.75;18.75;15.25
76049;PMS7003;64967;50.234;19.224;2023-05-07T01:26:43;27.00;22.00;15.00
76049;PMS7003;64967;50.234;19.224;2023-05-07T01:29:11;12.50;10.25;4.50
76049;PMS7003;64967;50.234;19.224;2023-05-07T01:31:38;18.25;15.50;11.00
76049;PMS7003;64967;50.234;19.224;2023-05-07T01:34:07;14.25;13.50;11.00
76049;PMS7003;64967;50.234;19.224;2023-05-07T01:36:38;10.00;7.25;3.00
76049;PMS7003;64967;50.234;19.224;2023-05-07T01:39:06;17.00;14.00;10.25
76049;PMS7003;64967;50.234;19.224;2023-05-07T01:41:35;22.50;19.25;13.75
76049;PMS7003;64967;50.234;19.224;2023-05-07T01:44:02;15.50;13.75;11.50
76049;PMS7003;64967;50.234;19.224;2023-05-07T01:46:31;17.50;16.00;11.00
76049;PMS7003;64967;50.234;19.224;2023-05-07T01:48:59;18.50;17.75;12.75
76049;PMS7003;64967;50.234;19.224;2023-05-07T01:51:26;15.00;13.00;11.00
76049;PMS7003;64967;50.234;19.224;2023-05-07T01:53:53;12.50;11.00;8.00
76049;PMS7003;64967;50.234;19.224;2023-05-07T01:56:20;13.50;12.50;10.50
76049;PMS7003;64967;50.234;19.224;2023-05-07T01:58:48;14.50;12.25;10.00
76049;PMS7003;64967;50.234;19.224;2023-05-07T02:01:17;16.00;14.00;10.25
76049;PMS7003;64967;50.234;19.224;2023-05-07T02:03:45;16.75;14.25;11.00
76049;PMS7003;64967;50.234;19.224;2023-05-07T02:06:12;15.00;13.25;10.50
76049;PMS7003;64967;50.234;19.224;2023-05-07T02:08:39;14.75;10.50;9.25
76049;PMS7003;64967;50.234;19.224;2023-05-07T02:11:06;14.00;14.00;9.75
76049;PMS7003;64967;50.234;19.224;2023-05-07T02:13:33;17.50;14.00;10.00
76049;PMS7003;64967;50.234;19.224;2023-05-07T02:16:03;16.25;14.25;10.00
76049;PMS7003;64967;50.234;19.224;2023-05-07T02:18:30;13.25;11.50;9.25
76049;PMS7003;64967;50.234;19.224;2023-05-07T02:20:58;11.75;10.50;8.50
76049;PMS7003;64967;50.234;19.224;2023-05-07T02:23:25;10.00;9.00;8.00
76049;PMS7003;64967;50.234;19.224;2023-05-07T02:25:52;8.00;8.00;6.00
76049;PMS7003;64967;50.234;19.224;2023-05-07T02:28:19;10.75;10.25;8.00
76049;PMS7003;64967;50.234;19.224;2023-05-07T02:30:46;15.50;15.50;11.00
76049;PMS7003;64967;50.234;19.224;2023-05-07T02:33:13;8.00;7.00;4.00
76049;PMS7003;64967;50.234;19.224;2023-05-07T02:35:40;14.75;9.75;7.25
76049;PMS7003;64967;50.234;19.224;2023-05-07T02:38:07;11.75;11.75;10.75
76049;PMS7003;64967;50.234;19.224;2023-05-07T02:40:37;18.50;17.75;15.25
76049;PMS7003;64967;50.234;19.224;2023-05-07T02:43:07;15.00;15.00;11.00
76049;PMS7003;64967;50.234;19.224;2023-05-07T02:45:35;21.75;18.75;12.50
76049;PMS7003;64967;50.234;19.224;2023-05-07T02:48:04;22.50;21.75;15.00
76049;PMS7003;64967;50.234;19.224;2023-05-07T02:50:32;17.25;15.00;11.00
76049;PMS7003;64967;50.234;19.224;2023-05-07T02:52:59;18.25;17.00;13.25
76049;PMS7003;64967;50.234;19.224;2023-05-07T02:55:26;15.75;14.75;11.00
76049;PMS7003;64967;50.234;19.224;2023-05-07T02:57:53;14.75;13.50;11.00
76049;PMS7003;64967;50.234;19.224;2023-05-07T03:00:20;11.00;10.50;8.50
76049;PMS7003;64967;50.234;19.224;2023-05-07T03:02:47;18.50;14.00;9.75
76049;PMS7003;64967;50.234;19.224;2023-05-07T03:05:14;13.75;13.75;10.00
76049;PMS7003;64967;50.234;19.224;2023-05-07T03:07:41;15.75;14.50;11.25
76049;PMS7003;64967;50.234;19.224;2023-05-07T03:10:11;11.50;11.00;8.00
76049;PMS7003;64967;50.234;19.224;2023-05-07T03:12:39;8.00;5.50;5.00
76049;PMS7003;64967;50.234;19.224;2023-05-07T03:15:06;7.75;7.75;5.50
76049;PMS7003;64967;50.234;19.224;2023-05-07T03:17:33;8.75;8.00;7.00
76049;PMS7003;64967;50.234;19.224;2023-05-07T03:20:00;5.50;5.50;4.75
76049;PMS7003;64967;50.234;19.224;2023-05-07T03:22:27;12.00;10.00;8.50
76049;PMS7003;64967;50.234;19.224;2023-05-07T03:24:54;9.50;9.50;6.25
76049;PMS7003;64967;50.234;19.224;2023-05-07T03:27:21;11.75;10.00;8.25
76049;PMS7003;64967;50.234;19.224;2023-05-07T03:29:48;10.00;9.00;7.00
76049;PMS7003;64967;50.234;19.224;2023-05-07T03:32:15;9.25;8.00;7.00
76049;PMS7003;64967;50.234;19.224;2023-05-07T03:34:42;6.00;4.25;4.00
76049;PMS7003;64967;50.234;19.224;2023-05-07T03:37:09;8.25;8.25;7.00
76049;PMS7003;64967;50.234;19.224;2023-05-07T03:39:36;7.75;7.25;4.50
76049;PMS7003;64967;50.234;19.224;2023-05-07T03:42:03;7.00;5.00;4.00
76049;PMS7003;64967;50.234;19.224;2023-05-07T03:44:30;12.25;10.00;7.75
76049;PMS7003;64967;50.234;19.224;2023-05-07T03:46:57;8.50;8.00;6.50
76049;PMS7003;64967;50.234;19.224;2023-05-07T03:49:24;11.00;9.75;7.00
76049;PMS7003;64967;50.234;19.224;2023-05-07T03:51:51;8.25;8.25;7.25
76049;PMS7003;64967;50.234;19.224;2023-05-07T03:54:18;10.25;10.25;8.00
76049;PMS7003;64967;50.234;19.224;2023-05-07T03:56:44;9.00;8.00;5.25
76049;PMS7003;64967;50.234;19.224;2023-05-07T03:59:12;8.50;8.00;5.75
76049;PMS7003;64967;50.234;19.224;2023-05-07T04:01:39;8.25;6.00;4.25
76049;PMS7003;64967;50.234;19.224;2023-05-07T04:04:06;10.75;9.75;7.50
76049;PMS7003;64967;50.234;19.224;2023-05-07T04:06:33;12.25;11.00;10.00
76049;PMS7003;64967;50.234;19.224;2023-05-07T04:09:00;10.50;9.00;8.00
76049;PMS7003;64967;50.234;19.224;2023-05-07T04:11:27;9.75;9.25;7.75
76049;PMS7003;64967;50.234;19.224;2023-05-07T04:13:54;12.25;10.75;7.75
76049;PMS7003;64967;50.234;19.224;2023-05-07T04:16:21;12.00;11.75;9.50
76049;PMS7003;64967;50.234;19.224;2023-05-07T04:18:48;15.00;12.25;9.75
76049;PMS7003;64967;50.234;19.224;2023-05-07T04:21:16;10.00;9.25;7.75
76049;PMS7003;64967;50.234;19.224;2023-05-07T04:23:44;9.00;8.50;7.50
76049;PMS7003;64967;50.234;19.224;2023-05-07T04:26:12;13.75;12.00;9.00
76049;PMS7003;64967;50.234;19.224;2023-05-07T04:28:39;8.00;7.00;5.00
76049;PMS7003;64967;50.234;19.224;2023-05-07T04:31:07;6.50;5.00;3.75
76049;PMS7003;64967;50.234;19.224;2023-05-07T04:33:34;11.00;9.50;7.75
76049;PMS7003;64967;50.234;19.224;2023-05-07T04:36:01;10.00;9.00;8.00
76049;PMS7003;64967;50.234;19.224;2023-05-07T04:38:30;4.75;2.50;1.50
76049;PMS7003;64967;50.234;19.224;2023-05-07T04:41:03;5.50;5.00;4.00
76049;PMS7003;64967;50.234;19.224;2023-05-07T04:43:31;8.00;8.00;6.00
76049;PMS7003;64967;50.234;19.224;2023-05-07T04:45:58;7.50;7.50;5.00
76049;PMS7003;64967;50.234;19.224;2023-05-07T04:48:26;7.00;4.25;4.00
76049;PMS7003;64967;50.234;19.224;2023-05-07T04:50:53;9.75;9.00;7.00
76049;PMS7003;64967;50.234;19.224;2023-05-07T04:53:20;6.75;6.75;4.50
76049;PMS7003;64967;50.234;19.224;2023-05-07T04:55:48;7.00;5.00;4.00
76049;PMS7003;64967;50.234;19.224;2023-05-07T04:58:15;15.00;8.00;7.00
76049;PMS7003;64967;50.234;19.224;2023-05-07T05:00:42;5.00;5.00;5.00
76049;PMS7003;64967;50.234;19.224;2023-05-07T05:03:09;9.00;5.00;3.50
76049;PMS7003;64967;50.234;19.224;2023-05-07T05:05:37;6.50;6.00;4.00
76049;PMS7003;64967;50.234;19.224;2023-05-07T05:08:04;7.00;5.25;4.50
76049;PMS7003;64967;50.234;19.224;2023-05-07T05:10:31;8.50;8.50;5.50
76049;PMS7003;64967;50.234;19.224;2023-05-07T05:12:58;7.50;6.50;4.25
76049;PMS7003;64967;50.234;19.224;2023-05-07T05:15:25;10.00;8.75;8.25
76049;PMS7003;64967;50.234;19.224;2023-05-07T05:17:52;10.25;10.00;7.00
76049;PMS7003;64967;50.234;19.224;2023-05-07T05:20:19;10.25;9.75;8.00
76049;PMS7003;64967;50.234;19.224;2023-05-07T05:22:46;14.25;11.75;8.25
76049;PMS7003;64967;50.234;19.224;2023-05-07T05:25:13;9.00;8.00;6.00
76049;PMS7003;64967;50.234;19.224;2023-05-07T05:27:40;8.00;6.00;4.00
76049;PMS7003;64967;50.234;19.224;2023-05-07T05:30:07;6.00;5.00;4.75
76049;PMS7003;64967;50.234;19.224;2023-05-07T05:32:35;7.75;7.25;4.75
76049;PMS7003;64967;50.234;19.224;2023-05-07T05:35:02;4.00;4.00;3.00
76049;PMS7003;64967;50.234;19.224;2023-05-07T05:37:29;7.00;6.00;4.00
76049;PMS7003;64967;50.234;19.224;2023-05-07T05:39:57;4.25;4.00;3.50
76049;PMS7003;64967;50.234;19.224;2023-05-07T05:42:24;7.00;7.00;5.00
76049;PMS7003;64967;50.234;19.224;2023-05-07T05:44:51;4.50;4.00;4.00
76049;PMS7003;64967;50.234;19.224;2023-05-07T05:47:18;4.75;4.00;3.25
76049;PMS7003;64967;50.234;19.224;2023-05-07T05:49:45;3.00;3.00;2.75
76049;PMS7003;64967;50.234;19.224;2023-05-07T05:52:12;3.25;3.25;3.00
76049;PMS7003;64967;50.234;19.224;2023-05-07T05:54:40;2.00;2.00;2.00
76049;PMS7003;64967;50.234;19.224;2023-05-07T05:57:07;5.25;4.00;3.75
76049;PMS7003;64967;50.234;19.224;2023-05-07T05:59:34;4.00;4.00;4.00
76049;PMS7003;64967;50.234;19.224;2023-05-07T06:02:01;8.00;7.50;5.00
76049;PMS7003;64967;50.234;19.224;2023-05-07T06:04:29;4.25;4.25;3.75
76049;PMS7003;64967;50.234;19.224;2023-05-07T06:06:56;9.25;9.00;7.00
76049;PMS7003;64967;50.234;19.224;2023-05-07T06:09:23;8.50;8.50;7.00
76049;PMS7003;64967;50.234;19.224;2023-05-07T06:11:50;9.50;6.00;5.00
76049;PMS7003;64967;50.234;19.224;2023-05-07T06:14:17;8.50;7.00;4.00
76049;PMS7003;64967;50.234;19.224;2023-05-07T06:16:44;5.00;4.00;3.00
76049;PMS7003;64967;50.234;19.224;2023-05-07T06:19:11;6.00;5.00;3.75
76049;PMS7003;64967;50.234;19.224;2023-05-07T06:21:38;7.50;7.00;5.00
76049;PMS7003;64967;50.234;19.224;2023-05-07T06:24:06;3.00;3.00;2.25
76049;PMS7003;64967;50.234;19.224;2023-05-07T06:26:33;8.75;7.00;5.00
76049;PMS7003;64967;50.234;19.224;2023-05-07T06:29:00;7.50;6.25;4.75
76049;PMS7003;64967;50.234;19.224;2023-05-07T06:31:29;9.75;7.75;4.75
76049;PMS7003;64967;50.234;19.224;2023-05-07T06:34:00;10.75;9.00;8.00
76049;PMS7003;64967;50.234;19.224;2023-05-07T06:36:28;10.25;9.50;8.25
76049;PMS7003;64967;50.234;19.224;2023-05-07T06:38:55;11.00;9.75;7.50
76049;PMS7003;64967;50.234;19.224;2023-05-07T06:41:22;14.50;13.50;9.75
76049;PMS7003;64967;50.234;19.224;2023-05-07T06:43:49;15.00;13.25;9.50
76049;PMS7003;64967;50.234;19.224;2023-05-07T06:46:16;10.50;9.50;9.00
76049;PMS7003;64967;50.234;19.224;2023-05-07T06:48:43;15.25;14.25;11.00
76049;PMS7003;64967;50.234;19.224;2023-05-07T06:51:10;22.50;16.25;13.50
76049;PMS7003;64967;50.234;19.224;2023-05-07T06:53:37;20.25;16.00;11.00
76049;PMS7003;64967;50.234;19.224;2023-05-07T06:56:04;18.25;15.25;11.75
76049;PMS7003;64967;50.234;19.224;2023-05-07T06:58:32;18.25;13.75;10.25
76049;PMS7003;64967;50.234;19.224;2023-05-07T07:00:59;15.00;14.00;9.50
76049;PMS7003;64967;50.234;19.224;2023-05-07T07:03:26;14.50;13.75;9.75
76049;PMS7003;64967;50.234;19.224;2023-05-07T07:05:54;11.25;10.00;8.00
76049;PMS7003;64967;50.234;19.224;2023-05-07T07:08:21;13.25;12.50;8.50
76049;PMS7003;64967;50.234;19.224;2023-05-07T07:10:48;8.25;7.00;5.50
76049;PMS7003;64967;50.234;19.224;2023-05-07T07:13:15;11.25;9.75;7.00
76049;PMS7003;64967;50.234;19.224;2023-05-07T07:15:43;8.50;7.75;6.50
76049;PMS7003;64967;50.234;19.224;2023-05-07T07:18:10;12.50;10.50;8.00
76049;PMS7003;64967;50.234;19.224;2023-05-07T07:20:37;7.00;6.75;5.25
76049;PMS7003;64967;50.234;19.224;2023-05-07T07:23:04;13.25;10.25;8.25
76049;PMS7003;64967;50.234;19.224;2023-05-07T07:25:31;7.00;5.50;4.75
76049;PMS7003;64967;50.234;19.224;2023-05-07T07:27:58;10.00;9.00;8.00
76049;PMS7003;64967;50.234;19.224;2023-05-07T07:30:25;8.00;8.00;7.50
76049;PMS7003;64967;50.234;19.224;2023-05-07T07:32:53;10.25;10.25;9.00
76049;PMS7003;64967;50.234;19.224;2023-05-07T07:35:20;9.50;9.25;8.25
76049;PMS7003;64967;50.234;19.224;2023-05-07T07:37:48;10.00;10.00;8.50
76049;PMS7003;64967;50.234;19.224;2023-05-07T07:40:16;8.00;7.25;5.00
76049;PMS7003;64967;50.234;19.224;2023-05-07T07:42:43;8.00;5.75;4.75
76049;PMS7003;64967;50.234;19.224;2023-05-07T07:45:10;8.00;7.00;5.25
76049;PMS7003;64967;50.234;19.224;2023-05-07T07:47:41;10.00;9.00;7.25
76049;PMS7003;64967;50.234;19.224;2023-05-07T07:50:08;9.75;9.00;7.00
76049;PMS7003;64967;50.234;19.224;2023-05-07T07:52:36;7.50;7.50;6.00
76049;PMS7003;64967;50.234;19.224;2023-05-07T07:55:03;8.25;8.00;5.00
76049;PMS7003;64967;50.234;19.224;2023-05-07T07:57:31;7.00;5.00;4.25
76049;PMS7003;64967;50.234;19.224;2023-05-07T07:59:58;11.00;10.00;8.00
76049;PMS7003;64967;50.234;19.224;2023-05-07T08:02:24;9.00;8.25;6.25
76049;PMS7003;64967;50.234;19.224;2023-05-07T08:04:52;9.00;8.75;6.25
76049;PMS7003;64967;50.234;19.224;2023-05-07T08:07:18;11.00;10.00;8.00
76049;PMS7003;64967;50.234;19.224;2023-05-07T08:09:47;11.75;10.00;8.00
76049;PMS7003;64967;50.234;19.224;2023-05-07T08:12:14;12.00;11.75;9.25
76049;PMS7003;64967;50.234;19.224;2023-05-07T08:14:41;10.00;9.50;7.00
76049;PMS7003;64967;50.234;19.224;2023-05-07T08:17:08;11.75;11.00;9.00
76049;PMS7003;64967;50.234;19.224;2023-05-07T08:19:36;20.25;19.50;12.25
76049;PMS7003;64967;50.234;19.224;2023-05-07T08:22:03;15.00;14.00;9.00
76049;PMS7003;64967;50.234;19.224;2023-05-07T08:24:32;15.50;15.50;9.50
76049;PMS7003;64967;50.234;19.224;2023-05-07T08:26:59;16.50;15.00;11.00
76049;PMS7003;64967;50.234;19.224;2023-05-07T08:29:26;15.50;13.00;10.00
76049;PMS7003;64967;50.234;19.224;2023-05-07T08:31:53;15.50;11.00;9.00
76049;PMS7003;64967;50.234;19.224;2023-05-07T08:34:21;12.00;11.25;9.75
76049;PMS7003;64967;50.234;19.224;2023-05-07T08:36:49;10.25;9.25;7.25
76049;PMS7003;64967;50.234;19.224;2023-05-07T08:39:16;10.50;10.00;8.50
76049;PMS7003;64967;50.234;19.224;2023-05-07T08:41:46;10.00;9.00;8.00
76049;PMS7003;64967;50.234;19.224;2023-05-07T08:44:15;10.00;6.00;4.50
76049;PMS7003;64967;50.234;19.224;2023-05-07T08:46:46;9.50;7.50;5.00
76049;PMS7003;64967;50.234;19.224;2023-05-07T08:49:20;4.75;4.00;3.25
76049;PMS7003;64967;50.234;19.224;2023-05-07T08:51:47;11.50;9.50;9.00
76049;PMS7003;64967;50.234;19.224;2023-05-07T08:54:17;17.50;14.50;11.25
76049;PMS7003;64967;50.234;19.224;2023-05-07T08:56:46;10.75;10.00;8.25
76049;PMS7003;64967;50.234;19.224;2023-05-07T08:59:13;17.75;12.50;8.25
76049;PMS7003;64967;50.234;19.224;2023-05-07T09:01:40;8.25;8.25;7.00
76049;PMS7003;64967;50.234;19.224;2023-05-07T09:04:07;10.50;10.00;8.75
76049;PMS7003;64967;50.234;19.224;2023-05-07T09:06:35;7.75;7.50;5.00
76049;PMS7003;64967;50.234;19.224;2023-05-07T09:09:04;10.00;9.25;6.75
76049;PMS7003;64967;50.234;19.224;2023-05-07T09:11:32;7.50;7.25;5.00
76049;PMS7003;64967;50.234;19.224;2023-05-07T09:13:58;14.00;11.75;9.25
76049;PMS7003;64967;50.234;19.224;2023-05-07T09:16:29;14.50;13.00;10.00
76049;PMS7003;64967;50.234;19.224;2023-05-07T09:18:57;12.50;11.00;8.50
76049;PMS7003;64967;50.234;19.224;2023-05-07T09:21:26;11.00;10.50;8.00
76049;PMS7003;64967;50.234;19.224;2023-05-07T09:23:54;17.00;15.75;11.75
76049;PMS7003;64967;50.234;19.224;2023-05-07T09:26:22;11.50;11.00;9.25
76049;PMS7003;64967;50.234;19.224;2023-05-07T09:28:50;15.75;14.25;10.75
76049;PMS7003;64967;50.234;19.224;2023-05-07T09:31:18;15.75;15.00;11.00
76049;PMS7003;64967;50.234;19.224;2023-05-07T09:33:47;10.25;8.50;7.50
76049;PMS7003;64967;50.234;19.224;2023-05-07T09:36:14;9.00;7.00;5.00
76049;PMS7003;64967;50.234;19.224;2023-05-07T09:38:42;14.75;11.50;8.50
76049;PMS7003;64967;50.234;19.224;2023-05-07T09:41:12;10.50;10.00;8.00
76049;PMS7003;64967;50.234;19.224;2023-05-07T09:43:39;10.75;9.75;8.00
76049;PMS7003;64967;50.234;19.224;2023-05-07T09:46:13;13.75;11.25;9.50
76049;PMS7003;64967;50.234;19.224;2023-05-07T09:48:42;13.25;12.00;9.50
76049;PMS7003;64967;50.234;19.224;2023-05-07T09:51:29;13.50;11.00;8.00
76049;PMS7003;64967;50.234;19.224;2023-05-07T09:54:05;17.00;15.50;12.25
76049;PMS7003;64967;50.234;19.224;2023-05-07T09:56:33;12.25;10.00;9.00
76049;PMS7003;64967;50.234;19.224;2023-05-07T09:59:04;14.25;12.25;10.00
76049;PMS7003;64967;50.234;19.224;2023-05-07T10:01:32;16.00;13.25;9.00
76049;PMS7003;64967;50.234;19.224;2023-05-07T10:04:03;11.75;10.75;8.75
76049;PMS7003;64967;50.234;19.224;2023-05-07T10:06:30;10.00;9.00;7.25
76049;PMS7003;64967;50.234;19.224;2023-05-07T10:08:58;9.50;8.00;6.00
76049;PMS7003;64967;50.234;19.224;2023-05-07T10:11:25;8.25;8.00;7.00
76049;PMS7003;64967;50.234;19.224;2023-05-07T10:13:52;11.00;10.00;7.50
76049;PMS7003;64967;50.234;19.224;2023-05-07T10:16:20;11.00;8.50;7.00
76049;PMS7003;64967;50.234;19.224;2023-05-07T10:18:47;10.50;7.50;6.00
76049;PMS7003;64967;50.234;19.224;2023-05-07T10:23:51;8.00;7.75;7.00
76049;PMS7003;64967;50.234;19.224;2023-05-07T10:26:24;8.75;7.50;7.00
76049;PMS7003;64967;50.234;19.224;2023-05-07T10:28:55;6.00;6.00;5.00
76049;PMS7003;64967;50.234;19.224;2023-05-07T10:34:00;6.00;5.00;4.25
76049;PMS7003;64967;50.234;19.224;2023-05-07T10:36:34;12.00;11.00;10.00
76049;PMS7003;64967;50.234;19.224;2023-05-07T10:39:04;14.00;12.00;9.00
76049;PMS7003;64967;50.234;19.224;2023-05-07T10:41:32;13.75;12.00;9.50
76049;PMS7003;64967;50.234;19.224;2023-05-07T10:43:59;15.25;13.00;10.00
76049;PMS7003;64967;50.234;19.224;2023-05-07T10:46:28;9.75;9.00;7.25
76049;PMS7003;64967;50.234;19.224;2023-05-07T10:51:35;8.50;5.00;4.00
76049;PMS7003;64967;50.234;19.224;2023-05-07T10:56:39;5.00;5.00;5.00
76049;PMS7003;64967;50.234;19.224;2023-05-07T11:01:54;3.00;3.00;3.00
76049;PMS7003;64967;50.234;19.224;2023-05-07T11:04:24;8.25;7.25;4.75
76049;PMS7003;64967;50.234;19.224;2023-05-07T11:17:55;6.50;4.00;3.75
76049;PMS7003;64967;50.234;19.224;2023-05-07T11:26:03;7.00;6.25;4.75
76049;PMS7003;64967;50.234;19.224;2023-05-07T11:28:36;8.00;8.00;6.25
76049;PMS7003;64967;50.234;19.224;2023-05-07T11:31:05;8.50;7.75;6.75
76049;PMS7003;64967;50.234;19.224;2023-05-07T11:33:32;5.00;5.00;4.00
76049;PMS7003;64967;50.234;19.224;2023-05-07T11:36:00;5.00;5.00;4.25
76049;PMS7003;64967;50.234;19.224;2023-05-07T11:38:29;8.50;6.00;4.25
76049;PMS7003;64967;50.234;19.224;2023-05-07T11:40:59;8.50;7.25;5.75
76049;PMS7003;64967;50.234;19.224;2023-05-07T11:43:27;4.00;4.00;4.00
76049;PMS7003;64967;50.234;19.224;2023-05-07T11:45:54;8.50;7.25;5.50
76049;PMS7003;64967;50.234;19.224;2023-05-07T11:48:21;9.00;7.50;6.00
76049;PMS7003;64967;50.234;19.224;2023-05-07T11:53:25;8.00;7.50;6.00
76049;PMS7003;64967;50.234;19.224;2023-05-07T11:55:56;9.75;8.50;7.00
76049;PMS7003;64967;50.234;19.224;2023-05-07T11:58:24;5.00;4.00;2.00
76049;PMS7003;64967;50.234;19.224;2023-05-07T12:00:54;6.00;4.75;4.00
76049;PMS7003;64967;50.234;19.224;2023-05-07T12:03:21;6.50;5.50;5.00
76049;PMS7003;64967;50.234;19.224;2023-05-07T12:05:48;4.25;4.00;3.00
76049;PMS7003;64967;50.234;19.224;2023-05-07T12:08:16;5.00;5.00;4.50
76049;PMS7003;64967;50.234;19.224;2023-05-07T12:10:44;7.50;7.00;5.00
76049;PMS7003;64967;50.234;19.224;2023-05-07T12:13:15;8.00;8.00;6.25
76049;PMS7003;64967;50.234;19.224;2023-05-07T12:15:46;5.50;4.50;4.00
76049;PMS7003;64967;50.234;19.224;2023-05-07T12:18:16;8.25;6.50;4.00
76049;PMS7003;64967;50.234;19.224;2023-05-07T12:20:44;2.75;2.75;2.25
76049;PMS7003;64967;50.234;19.224;2023-05-07T12:23:12;6.50;4.50;3.25
76049;PMS7003;64967;50.234;19.224;2023-05-07T12:25:40;4.50;4.50;4.00
76049;PMS7003;64967;50.234;19.224;2023-05-07T12:28:14;7.25;5.00;5.00
76049;PMS7003;64967;50.234;19.224;2023-05-07T12:30:43;7.50;7.00;5.00
76049;PMS7003;64967;50.234;19.224;2023-05-07T12:33:11;6.50;4.00;3.50
76049;PMS7003;64967;50.234;19.224;2023-05-07T12:35:39;5.25;4.50;3.50
76049;PMS7003;64967;50.234;19.224;2023-05-07T12:38:16;5.00;4.25;4.00
76049;PMS7003;64967;50.234;19.224;2023-05-07T12:40:53;5.00;4.25;3.00
76049;PMS7003;64967;50.234;19.224;2023-05-07T12:43:25;6.00;4.25;4.00
76049;PMS7003;64967;50.234;19.224;2023-05-07T12:45:56;2.25;2.25;2.00
76049;PMS7003;64967;50.234;19.224;2023-05-07T12:48:26;5.00;4.25;4.25
76049;PMS7003;64967;50.234;19.224;2023-05-07T12:50:56;5.25;4.50;4.25
76049;PMS7003;64967;50.234;19.224;2023-05-07T12:53:24;4.50;4.00;3.25
76049;PMS7003;64967;50.234;19.224;2023-05-07T12:55:54;5.25;5.25;4.00
76049;PMS7003;64967;50.234;19.224;2023-05-07T13:00:55;6.25;6.25;6.25
76049;PMS7003;64967;50.234;19.224;2023-05-07T13:05:55;3.50;3.50;3.00
76049;PMS7003;64967;50.234;19.224;2023-05-07T13:08:25;4.75;4.75;3.75
76049;PMS7003;64967;50.234;19.224;2023-05-07T13:10:57;5.00;5.00;4.25
76049;PMS7003;64967;50.234;19.224;2023-05-07T13:13:26;4.75;4.00;3.50
76049;PMS7003;64967;50.234;19.224;2023-05-07T13:15:57;7.00;5.00;4.00
76049;PMS7003;64967;50.234;19.224;2023-05-07T13:18:25;7.50;7.50;6.00
76049;PMS7003;64967;50.234;19.224;2023-05-07T13:20:53;5.00;5.00;4.50
76049;PMS7003;64967;50.234;19.224;2023-05-07T13:23:20;4.00;4.00;4.00
76049;PMS7003;64967;50.234;19.224;2023-05-07T13:25:48;4.25;4.00;3.00
76049;PMS7003;64967;50.234;19.224;2023-05-07T13:28:15;4.00;4.00;3.00
76049;PMS7003;64967;50.234;19.224;2023-05-07T13:30:43;3.50;3.00;2.50
76049;PMS7003;64967;50.234;19.224;2023-05-07T13:33:10;5.50;5.50;4.25
76049;PMS7003;64967;50.234;19.224;2023-05-07T13:35:37;8.75;8.00;5.50
76049;PMS7003;64967;50.234;19.224;2023-05-07T13:38:04;9.75;7.50;5.00
76049;PMS7003;64967;50.234;19.224;2023-05-07T13:40:32;8.00;7.25;5.00
76049;PMS7003;64967;50.234;19.224;2023-05-07T13:42:59;7.00;6.25;5.00
76049;PMS7003;64967;50.234;19.224;2023-05-07T13:45:28;9.00;7.50;5.00
76049;PMS7003;64967;50.234;19.224;2023-05-07T13:47:56;7.00;7.00;5.00
76049;PMS7003;64967;50.234;19.224;2023-05-07T13:50:23;8.50;8.50;5.50
76049;PMS7003;64967;50.234;19.224;2023-05-07T13:52:50;8.25;7.75;6.50
76049;PMS7003;64967;50.234;19.224;2023-05-07T13:55:18;8.00;5.00;5.00
76049;PMS7003;64967;50.234;19.224;2023-05-07T13:57:45;10.00;9.25;7.50
76049;PMS7003;64967;50.234;19.224;2023-05-07T14:00:13;7.75;7.25;5.00
76049;PMS7003;64967;50.234;19.224;2023-05-07T14:02:42;4.50;4.25;3.00
76049;PMS7003;64967;50.234;19.224;2023-05-07T14:05:10;8.00;7.00;5.00
76049;PMS7003;64967;50.234;19.224;2023-05-07T14:07:37;4.75;3.75;3.00
76049;PMS7003;64967;50.234;19.224;2023-05-07T14:10:04;7.00;6.00;4.00
76049;PMS7003;64967;50.234;19.224;2023-05-07T14:12:32;5.25;4.75;3.75
76049;PMS7003;64967;50.234;19.224;2023-05-07T14:14:59;9.00;8.25;5.50
76049;PMS7003;64967;50.234;19.224;2023-05-07T14:17:26;9.75;8.00;6.25
76049;PMS7003;64967;50.234;19.224;2023-05-07T14:19:53;8.25;7.00;5.00
76049;PMS7003;64967;50.234;19.224;2023-05-07T14:22:21;5.00;4.00;3.75
76049;PMS7003;64967;50.234;19.224;2023-05-07T14:24:50;5.75;5.00;4.00
76049;PMS7003;64967;50.234;19.224;2023-05-07T14:27:31;8.00;7.50;5.00
76049;PMS7003;64967;50.234;19.224;2023-05-07T14:29:59;5.50;5.50;4.00
76049;PMS7003;64967;50.234;19.224;2023-05-07T14:32:26;8.25;7.75;5.00
76049;PMS7003;64967;50.234;19.224;2023-05-07T14:34:53;7.75;7.25;5.25
76049;PMS7003;64967;50.234;19.224;2023-05-07T14:37:20;7.75;7.00;5.00
76049;PMS7003;64967;50.234;19.224;2023-05-07T14:39:47;9.00;9.00;7.25
76049;PMS7003;64967;50.234;19.224;2023-05-07T14:42:16;9.00;8.00;7.75